sensor_id;sensor_type;location;lat;lon;timestamp;P1;durP1;ratioP1;P2;durP2;ratioP2
70924;SDS011;58577;52.410;13.242;2022-11-20T00:00:35;23.33;;;9.50;;
70924;SDS011;58577;52.410;13.242;2022-11-20T00:03:21;22.08;;;10.00;;
70924;SDS011;58577;52.410;13.242;2022-11-20T00:06:09;20.50;;;9.07;;
70924;SDS011;58577;52.410;13.242;2022-11-20T00:08:58;22.88;;;10.10;;
70924;SDS011;58577;52.410;13.242;2022-11-20T00:11:45;21.88;;;9.52;;
70924;SDS011;58577;52.410;13.242;2022-11-20T00:14:31;22.73;;;10.18;;
70924;SDS011;58577;52.410;13.242;2022-11-20T00:17:17;23.73;;;10.25;;
70924;SDS011;58577;52.410;13.242;2022-11-20T00:20:02;20.27;;;10.45;;
70924;SDS011;58577;52.410;13.242;2022-11-20T00:22:49;23.88;;;10.88;;
70924;SDS011;58577;52.410;13.242;2022-11-20T00:25:35;24.95;;;10.90;;
70924;SDS011;58577;52.410;13.242;2022-11-20T00:28:21;20.77;;;10.15;;
70924;SDS011;58577;52.410;13.242;2022-11-20T00:31:08;23.52;;;10.85;;
70924;SDS011;58577;52.410;13.242;2022-11-20T00:33:56;23.20;;;10.18;;
70924;SDS011;58577;52.410;13.242;2022-11-20T00:36:42;25.08;;;11.38;;
70924;SDS011;58577;52.410;13.242;2022-11-20T00:39:28;22.52;;;9.73;;
70924;SDS011;58577;52.410;13.242;2022-11-20T00:42:14;21.05;;;9.65;;
70924;SDS011;58577;52.410;13.242;2022-11-20T00:45:00;23.70;;;11.05;;
70924;SDS011;58577;52.410;13.242;2022-11-20T00:47:45;23.90;;;11.23;;
70924;SDS011;58577;52.410;13.242;2022-11-20T00:50:31;25.45;;;11.10;;
70924;SDS011;58577;52.410;13.242;2022-11-20T00:53:17;23.25;;;10.38;;
70924;SDS011;58577;52.410;13.242;2022-11-20T00:56:07;24.13;;;11.77;;
70924;SDS011;58577;52.410;13.242;2022-11-20T00:58:55;25.90;;;12.70;;
70924;SDS011;58577;52.410;13.242;2022-11-20T01:01:41;20.98;;;11.57;;
70924;SDS011;58577;52.410;13.242;2022-11-20T01:04:27;27.63;;;12.88;;
70924;SDS011;58577;52.410;13.242;2022-11-20T01:07:12;26.10;;;11.93;;
70924;SDS011;58577;52.410;13.242;2022-11-20T01:09:58;23.30;;;10.10;;
70924;SDS011;58577;52.410;13.242;2022-11-20T01:12:44;24.67;;;10.80;;
70924;SDS011;58577;52.410;13.242;2022-11-20T01:15:50;24.00;;;10.90;;
70924;SDS011;58577;52.410;13.242;2022-11-20T01:18:36;22.15;;;10.55;;
70924;SDS011;58577;52.410;13.242;2022-11-20T01:21:33;26.05;;;12.18;;
70924;SDS011;58577;52.410;13.242;2022-11-20T01:24:21;24.95;;;10.65;;
70924;SDS011;58577;52.410;13.242;2022-11-20T01:27:07;25.48;;;10.93;;
70924;SDS011;58577;52.410;13.242;2022-11-20T01:29:53;28.00;;;10.77;;
70924;SDS011;58577;52.410;13.242;2022-11-20T01:32:39;23.23;;;11.00;;
70924;SDS011;58577;52.410;13.242;2022-11-20T01:35:24;23.05;;;10.50;;
70924;SDS011;58577;52.410;13.242;2022-11-20T01:38:10;24.92;;;11.10;;
70924;SDS011;58577;52.410;13.242;2022-11-20T01:40:56;23.83;;;10.30;;
70924;SDS011;58577;52.410;13.242;2022-11-20T01:43:42;22.13;;;10.95;;
70924;SDS011;58577;52.410;13.242;2022-11-20T01:46:28;26.30;;;11.15;;
70924;SDS011;58577;52.410;13.242;2022-11-20T01:49:21;24.25;;;10.38;;
70924;SDS011;58577;52.410;13.242;2022-11-20T01:55:15;23.75;;;10.68;;
70924;SDS011;58577;52.410;13.242;2022-11-20T01:58:04;25.63;;;10.77;;
70924;SDS011;58577;52.410;13.242;2022-11-20T02:00:51;26.33;;;11.25;;
70924;SDS011;58577;52.410;13.242;2022-11-20T02:03:37;27.88;;;11.65;;
70924;SDS011;58577;52.410;13.242;2022-11-20T02:06:24;24.55;;;10.93;;
70924;SDS011;58577;52.410;13.242;2022-11-20T02:09:13;23.48;;;11.30;;
70924;SDS011;58577;52.410;13.242;2022-11-20T02:11:59;25.98;;;10.27;;
70924;SDS011;58577;52.410;13.242;2022-11-20T02:14:46;24.85;;;10.80;;
70924;SDS011;58577;52.410;13.242;2022-11-20T02:17:32;25.17;;;10.40;;
70924;SDS011;58577;52.410;13.242;2022-11-20T02:20:18;26.52;;;10.95;;
70924;SDS011;58577;52.410;13.242;2022-11-20T02:26:12;25.63;;;11.27;;
70924;SDS011;58577;52.410;13.242;2022-11-20T02:29:01;23.52;;;10.57;;
70924;SDS011;58577;52.410;13.242;2022-11-20T02:31:48;25.42;;;10.93;;
70924;SDS011;58577;52.410;13.242;2022-11-20T02:34:34;24.23;;;11.23;;
70924;SDS011;58577;52.410;13.242;2022-11-20T02:37:20;24.40;;;11.52;;
70924;SDS011;58577;52.410;13.242;2022-11-20T02:40:07;25.92;;;11.65;;
70924;SDS011;58577;52.410;13.242;2022-11-20T02:42:53;26.55;;;12.00;;
70924;SDS011;58577;52.410;13.242;2022-11-20T02:45:40;22.75;;;10.70;;
70924;SDS011;58577;52.410;13.242;2022-11-20T02:48:26;23.63;;;10.63;;
70924;SDS011;58577;52.410;13.242;2022-11-20T02:51:11;23.15;;;11.05;;
70924;SDS011;58577;52.410;13.242;2022-11-20T02:53:57;25.27;;;11.98;;
70924;SDS011;58577;52.410;13.242;2022-11-20T02:56:43;25.00;;;11.45;;
70924;SDS011;58577;52.410;13.242;2022-11-20T02:59:29;25.48;;;11.52;;
70924;SDS011;58577;52.410;13.242;2022-11-20T03:02:15;24.23;;;10.70;;
70924;SDS011;58577;52.410;13.242;2022-11-20T03:05:01;23.88;;;11.57;;
70924;SDS011;58577;52.410;13.242;2022-11-20T03:07:47;26.90;;;11.35;;
70924;SDS011;58577;52.410;13.242;2022-11-20T03:10:32;25.80;;;10.43;;
70924;SDS011;58577;52.410;13.242;2022-11-20T03:13:18;23.70;;;11.27;;
70924;SDS011;58577;52.410;13.242;2022-11-20T03:16:14;25.15;;;11.70;;
70924;SDS011;58577;52.410;13.242;2022-11-20T03:19:02;23.80;;;10.50;;
70924;SDS011;58577;52.410;13.242;2022-11-20T03:21:48;25.65;;;10.80;;
70924;SDS011;58577;52.410;13.242;2022-11-20T03:24:34;24.38;;;11.43;;
70924;SDS011;58577;52.410;13.242;2022-11-20T03:27:20;24.52;;;11.45;;
70924;SDS011;58577;52.410;13.242;2022-11-20T03:30:06;28.20;;;11.55;;
70924;SDS011;58577;52.410;13.242;2022-11-20T03:32:53;25.25;;;10.57;;
70924;SDS011;58577;52.410;13.242;2022-11-20T03:35:39;25.92;;;10.57;;
70924;SDS011;58577;52.410;13.242;2022-11-20T03:38:25;24.70;;;11.48;;
70924;SDS011;58577;52.410;13.242;2022-11-20T03:41:12;28.50;;;11.40;;
70924;SDS011;58577;52.410;13.242;2022-11-20T03:44:00;31.25;;;13.35;;
70924;SDS011;58577;52.410;13.242;2022-11-20T03:46:48;28.23;;;11.55;;
70924;SDS011;58577;52.410;13.242;2022-11-20T03:49:33;28.13;;;11.82;;
70924;SDS011;58577;52.410;13.242;2022-11-20T03:52:19;26.95;;;11.02;;
70924;SDS011;58577;52.410;13.242;2022-11-20T03:55:06;25.83;;;11.32;;
70924;SDS011;58577;52.410;13.242;2022-11-20T03:57:52;26.80;;;12.02;;
70924;SDS011;58577;52.410;13.242;2022-11-20T04:00:38;27.48;;;11.88;;
70924;SDS011;58577;52.410;13.242;2022-11-20T04:03:24;28.05;;;12.02;;
70924;SDS011;58577;52.410;13.242;2022-11-20T04:06:19;24.83;;;11.35;;
70924;SDS011;58577;52.410;13.242;2022-11-20T04:09:07;26.52;;;11.20;;
70924;SDS011;58577;52.410;13.242;2022-11-20T04:11:53;25.02;;;11.35;;
70924;SDS011;58577;52.410;13.242;2022-11-20T04:14:38;28.45;;;12.20;;
70924;SDS011;58577;52.410;13.242;2022-11-20T04:17:24;25.52;;;11.20;;
70924;SDS011;58577;52.410;13.242;2022-11-20T04:20:10;26.40;;;11.70;;
70924;SDS011;58577;52.410;13.242;2022-11-20T04:22:56;27.75;;;12.35;;
70924;SDS011;58577;52.410;13.242;2022-11-20T04:25:42;27.65;;;11.52;;
70924;SDS011;58577;52.410;13.242;2022-11-20T04:28:27;27.15;;;12.40;;
70924;SDS011;58577;52.410;13.242;2022-11-20T04:31:14;27.88;;;11.20;;
70924;SDS011;58577;52.410;13.242;2022-11-20T04:34:06;24.65;;;12.27;;
70924;SDS011;58577;52.410;13.242;2022-11-20T04:36:53;23.52;;;12.43;;
70924;SDS011;58577;52.410;13.242;2022-11-20T04:39:38;29.08;;;13.20;;
70924;SDS011;58577;52.410;13.242;2022-11-20T04:42:24;25.10;;;11.63;;
70924;SDS011;58577;52.410;13.242;2022-11-20T04:45:16;25.48;;;11.43;;
70924;SDS011;58577;52.410;13.242;2022-11-20T04:48:02;26.65;;;11.73;;
70924;SDS011;58577;52.410;13.242;2022-11-20T04:50:47;26.98;;;12.38;;
70924;SDS011;58577;52.410;13.242;2022-11-20T04:53:33;26.48;;;12.05;;
70924;SDS011;58577;52.410;13.242;2022-11-20T04:56:19;27.17;;;12.57;;
70924;SDS011;58577;52.410;13.242;2022-11-20T04:59:05;23.55;;;10.93;;
70924;SDS011;58577;52.410;13.242;2022-11-20T05:01:51;27.85;;;12.55;;
70924;SDS011;58577;52.410;13.242;2022-11-20T05:04:37;23.38;;;10.52;;
70924;SDS011;58577;52.410;13.242;2022-11-20T05:07:22;25.15;;;11.38;;
70924;SDS011;58577;52.410;13.242;2022-11-20T05:10:08;23.85;;;11.55;;
70924;SDS011;58577;52.410;13.242;2022-11-20T05:12:54;26.92;;;12.80;;
70924;SDS011;58577;52.410;13.242;2022-11-20T05:15:40;26.35;;;11.93;;
70924;SDS011;58577;52.410;13.242;2022-11-20T05:18:26;26.67;;;11.15;;
70924;SDS011;58577;52.410;13.242;2022-11-20T05:21:12;24.65;;;12.40;;
70924;SDS011;58577;52.410;13.242;2022-11-20T05:23:59;27.58;;;12.23;;
70924;SDS011;58577;52.410;13.242;2022-11-20T05:26:44;25.83;;;11.20;;
70924;SDS011;58577;52.410;13.242;2022-11-20T05:29:30;23.30;;;12.15;;
70924;SDS011;58577;52.410;13.242;2022-11-20T05:32:16;26.77;;;12.38;;
70924;SDS011;58577;52.410;13.242;2022-11-20T05:35:02;26.42;;;11.15;;
70924;SDS011;58577;52.410;13.242;2022-11-20T05:37:48;27.02;;;11.60;;
70924;SDS011;58577;52.410;13.242;2022-11-20T05:40:33;26.00;;;11.50;;
70924;SDS011;58577;52.410;13.242;2022-11-20T05:43:19;27.25;;;12.30;;
70924;SDS011;58577;52.410;13.242;2022-11-20T05:46:06;29.50;;;13.02;;
70924;SDS011;58577;52.410;13.242;2022-11-20T05:48:53;26.55;;;11.65;;
70924;SDS011;58577;52.410;13.242;2022-11-20T05:51:39;23.08;;;10.80;;
70924;SDS011;58577;52.410;13.242;2022-11-20T05:54:24;26.23;;;12.57;;
70924;SDS011;58577;52.410;13.242;2022-11-20T05:57:10;27.83;;;12.57;;
70924;SDS011;58577;52.410;13.242;2022-11-20T05:59:56;27.95;;;12.10;;
70924;SDS011;58577;52.410;13.242;2022-11-20T06:02:42;23.30;;;11.73;;
70924;SDS011;58577;52.410;13.242;2022-11-20T06:05:27;27.67;;;13.20;;
70924;SDS011;58577;52.410;13.242;2022-11-20T06:08:13;28.00;;;11.98;;
70924;SDS011;58577;52.410;13.242;2022-11-20T06:11:03;29.30;;;13.18;;
70924;SDS011;58577;52.410;13.242;2022-11-20T06:13:50;26.60;;;12.25;;
70924;SDS011;58577;52.410;13.242;2022-11-20T06:16:36;24.83;;;12.48;;
70924;SDS011;58577;52.410;13.242;2022-11-20T06:19:22;25.25;;;12.23;;
70924;SDS011;58577;52.410;13.242;2022-11-20T06:22:08;26.35;;;11.38;;
70924;SDS011;58577;52.410;13.242;2022-11-20T06:24:54;27.17;;;11.90;;
70924;SDS011;58577;52.410;13.242;2022-11-20T06:27:39;24.38;;;11.18;;
70924;SDS011;58577;52.410;13.242;2022-11-20T06:30:25;25.13;;;11.93;;
70924;SDS011;58577;52.410;13.242;2022-11-20T06:33:11;26.83;;;12.15;;
70924;SDS011;58577;52.410;13.242;2022-11-20T06:35:57;26.50;;;11.48;;
70924;SDS011;58577;52.410;13.242;2022-11-20T06:38:44;26.10;;;11.00;;
70924;SDS011;58577;52.410;13.242;2022-11-20T06:41:30;26.15;;;12.52;;
70924;SDS011;58577;52.410;13.242;2022-11-20T06:44:16;27.08;;;12.27;;
70924;SDS011;58577;52.410;13.242;2022-11-20T06:47:02;24.38;;;11.05;;
70924;SDS011;58577;52.410;13.242;2022-11-20T06:49:49;27.02;;;12.13;;
70924;SDS011;58577;52.410;13.242;2022-11-20T06:52:34;26.42;;;12.35;;
70924;SDS011;58577;52.410;13.242;2022-11-20T06:55:21;26.40;;;12.63;;
70924;SDS011;58577;52.410;13.242;2022-11-20T06:58:06;26.55;;;11.27;;
70924;SDS011;58577;52.410;13.242;2022-11-20T07:00:52;25.80;;;12.45;;
70924;SDS011;58577;52.410;13.242;2022-11-20T07:03:38;23.65;;;11.00;;
70924;SDS011;58577;52.410;13.242;2022-11-20T07:06:25;27.98;;;12.52;;
70924;SDS011;58577;52.410;13.242;2022-11-20T07:09:11;26.33;;;11.57;;
70924;SDS011;58577;52.410;13.242;2022-11-20T07:11:56;23.83;;;11.85;;
70924;SDS011;58577;52.410;13.242;2022-11-20T07:14:42;26.00;;;11.60;;
70924;SDS011;58577;52.410;13.242;2022-11-20T07:17:28;24.17;;;11.90;;
70924;SDS011;58577;52.410;13.242;2022-11-20T07:20:14;28.35;;;12.38;;
70924;SDS011;58577;52.410;13.242;2022-11-20T07:23:00;26.42;;;12.40;;
70924;SDS011;58577;52.410;13.242;2022-11-20T07:25:46;26.95;;;12.93;;
70924;SDS011;58577;52.410;13.242;2022-11-20T07:28:32;28.65;;;12.63;;
70924;SDS011;58577;52.410;13.242;2022-11-20T07:31:18;26.80;;;12.65;;
70924;SDS011;58577;52.410;13.242;2022-11-20T07:34:04;23.38;;;11.23;;
70924;SDS011;58577;52.410;13.242;2022-11-20T07:36:50;24.48;;;11.10;;
70924;SDS011;58577;52.410;13.242;2022-11-20T07:39:36;26.70;;;12.30;;
70924;SDS011;58577;52.410;13.242;2022-11-20T07:42:22;24.80;;;11.55;;
70924;SDS011;58577;52.410;13.242;2022-11-20T07:45:10;24.88;;;11.23;;
70924;SDS011;58577;52.410;13.242;2022-11-20T07:47:56;24.30;;;11.20;;
70924;SDS011;58577;52.410;13.242;2022-11-20T07:50:41;23.17;;;11.43;;
70924;SDS011;58577;52.410;13.242;2022-11-20T07:53:27;25.85;;;11.90;;
70924;SDS011;58577;52.410;13.242;2022-11-20T07:56:13;24.85;;;11.35;;
70924;SDS011;58577;52.410;13.242;2022-11-20T07:58:59;25.95;;;11.50;;
70924;SDS011;58577;52.410;13.242;2022-11-20T08:01:45;25.35;;;12.55;;
70924;SDS011;58577;52.410;13.242;2022-11-20T08:04:31;25.88;;;11.85;;
70924;SDS011;58577;52.410;13.242;2022-11-20T08:07:17;31.08;;;12.43;;
70924;SDS011;58577;52.410;13.242;2022-11-20T08:10:03;26.77;;;11.98;;
70924;SDS011;58577;52.410;13.242;2022-11-20T08:12:50;25.35;;;11.60;;
70924;SDS011;58577;52.410;13.242;2022-11-20T08:15:55;28.58;;;11.98;;
70924;SDS011;58577;52.410;13.242;2022-11-20T08:18:41;28.17;;;12.02;;
70924;SDS011;58577;52.410;13.242;2022-11-20T08:21:27;26.17;;;11.05;;
70924;SDS011;58577;52.410;13.242;2022-11-20T08:24:13;29.27;;;14.25;;
70924;SDS011;58577;52.410;13.242;2022-11-20T08:26:59;26.70;;;12.35;;
70924;SDS011;58577;52.410;13.242;2022-11-20T08:29:44;25.30;;;12.23;;
70924;SDS011;58577;52.410;13.242;2022-11-20T08:32:30;27.55;;;13.07;;
70924;SDS011;58577;52.410;13.242;2022-11-20T08:35:16;31.42;;;13.13;;
70924;SDS011;58577;52.410;13.242;2022-11-20T08:38:03;24.88;;;11.95;;
70924;SDS011;58577;52.410;13.242;2022-11-20T08:40:49;28.15;;;12.80;;
70924;SDS011;58577;52.410;13.242;2022-11-20T08:44:00;31.20;;;14.65;;
70924;SDS011;58577;52.410;13.242;2022-11-20T08:46:47;27.63;;;12.88;;
70924;SDS011;58577;52.410;13.242;2022-11-20T08:49:33;27.63;;;12.57;;
70924;SDS011;58577;52.410;13.242;2022-11-20T08:52:19;24.10;;;11.20;;
70924;SDS011;58577;52.410;13.242;2022-11-20T08:55:05;26.33;;;12.73;;
70924;SDS011;58577;52.410;13.242;2022-11-20T08:57:52;26.63;;;12.10;;
70924;SDS011;58577;52.410;13.242;2022-11-20T09:00:37;26.85;;;12.25;;
70924;SDS011;58577;52.410;13.242;2022-11-20T09:03:23;27.77;;;12.65;;
70924;SDS011;58577;52.410;13.242;2022-11-20T09:06:12;26.25;;;11.98;;
70924;SDS011;58577;52.410;13.242;2022-11-20T09:08:59;25.58;;;12.20;;
70924;SDS011;58577;52.410;13.242;2022-11-20T09:11:44;25.38;;;11.98;;
70924;SDS011;58577;52.410;13.242;2022-11-20T09:14:30;24.00;;;12.63;;
70924;SDS011;58577;52.410;13.242;2022-11-20T09:17:16;26.67;;;12.07;;
70924;SDS011;58577;52.410;13.242;2022-11-20T09:20:02;29.83;;;11.73;;
70924;SDS011;58577;52.410;13.242;2022-11-20T09:22:49;25.80;;;11.82;;
70924;SDS011;58577;52.410;13.242;2022-11-20T09:25:35;27.55;;;12.88;;
70924;SDS011;58577;52.410;13.242;2022-11-20T09:28:21;24.65;;;12.00;;
70924;SDS011;58577;52.410;13.242;2022-11-20T09:31:08;25.88;;;12.40;;
70924;SDS011;58577;52.410;13.242;2022-11-20T09:33:55;24.33;;;12.85;;
70924;SDS011;58577;52.410;13.242;2022-11-20T09:36:41;24.73;;;11.63;;
70924;SDS011;58577;52.410;13.242;2022-11-20T09:39:27;27.52;;;12.55;;
70924;SDS011;58577;52.410;13.242;2022-11-20T09:45:15;26.80;;;13.00;;
70924;SDS011;58577;52.410;13.242;2022-11-20T09:54:39;24.83;;;11.15;;
70924;SDS011;58577;52.410;13.242;2022-11-20T09:57:30;27.25;;;11.63;;
70924;SDS011;58577;52.410;13.242;2022-11-20T10:00:21;24.15;;;10.98;;
70924;SDS011;58577;52.410;13.242;2022-11-20T10:03:13;24.45;;;11.32;;
70924;SDS011;58577;52.410;13.242;2022-11-20T10:06:04;25.02;;;11.52;;
70924;SDS011;58577;52.410;13.242;2022-11-20T10:08:58;20.75;;;10.77;;
70924;SDS011;58577;52.410;13.242;2022-11-20T10:12:01;21.58;;;10.05;;
70924;SDS011;58577;52.410;13.242;2022-11-20T10:30:24;22.98;;;11.35;;
70924;SDS011;58577;52.410;13.242;2022-11-20T10:33:21;23.08;;;11.27;;
70924;SDS011;58577;52.410;13.242;2022-11-20T10:36:28;24.13;;;11.55;;
70924;SDS011;58577;52.410;13.242;2022-11-20T10:39:39;25.55;;;11.85;;
70924;SDS011;58577;52.410;13.242;2022-11-20T10:42:34;24.42;;;11.25;;
70924;SDS011;58577;52.410;13.242;2022-11-20T10:45:33;24.08;;;11.48;;
70924;SDS011;58577;52.410;13.242;2022-11-20T10:48:26;25.40;;;11.18;;
70924;SDS011;58577;52.410;13.242;2022-11-20T10:55:02;26.73;;;12.50;;
70924;SDS011;58577;52.410;13.242;2022-11-20T10:57:43;23.55;;;11.75;;
70924;SDS011;58577;52.410;13.242;2022-11-20T11:01:04;25.05;;;11.98;;
70924;SDS011;58577;52.410;13.242;2022-11-20T11:03:51;23.83;;;11.65;;
70924;SDS011;58577;52.410;13.242;2022-11-20T11:06:40;21.58;;;10.02;;
70924;SDS011;58577;52.410;13.242;2022-11-20T11:09:33;25.70;;;11.88;;
70924;SDS011;58577;52.410;13.242;2022-11-20T11:12:24;23.65;;;10.68;;
70924;SDS011;58577;52.410;13.242;2022-11-20T11:15:14;21.02;;;9.75;;
70924;SDS011;58577;52.410;13.242;2022-11-20T11:18:11;20.98;;;9.93;;
70924;SDS011;58577;52.410;13.242;2022-11-20T11:20:58;19.90;;;10.50;;
70924;SDS011;58577;52.410;13.242;2022-11-20T11:23:47;21.60;;;10.82;;
70924;SDS011;58577;52.410;13.242;2022-11-20T11:26:50;22.25;;;9.90;;
70924;SDS011;58577;52.410;13.242;2022-11-20T11:29:37;18.98;;;8.77;;
70924;SDS011;58577;52.410;13.242;2022-11-20T11:32:23;22.38;;;10.02;;
70924;SDS011;58577;52.410;13.242;2022-11-20T11:38:37;19.45;;;10.07;;
70924;SDS011;58577;52.410;13.242;2022-11-20T11:41:26;21.77;;;9.52;;
70924;SDS011;58577;52.410;13.242;2022-11-20T11:44:18;22.75;;;10.30;;
70924;SDS011;58577;52.410;13.242;2022-11-20T11:47:25;20.58;;;9.88;;
70924;SDS011;58577;52.410;13.242;2022-11-20T11:50:16;21.30;;;9.25;;
70924;SDS011;58577;52.410;13.242;2022-11-20T11:53:14;19.33;;;8.70;;
70924;SDS011;58577;52.410;13.242;2022-11-20T11:56:08;20.20;;;9.85;;
70924;SDS011;58577;52.410;13.242;2022-11-20T11:58:55;18.60;;;8.57;;
70924;SDS011;58577;52.410;13.242;2022-11-20T12:01:51;18.75;;;9.20;;
70924;SDS011;58577;52.410;13.242;2022-11-20T12:08:04;16.73;;;7.40;;
70924;SDS011;58577;52.410;13.242;2022-11-20T12:13:57;13.32;;;6.85;;
70924;SDS011;58577;52.410;13.242;2022-11-20T12:16:47;14.70;;;7.90;;
70924;SDS011;58577;52.410;13.242;2022-11-20T12:19:34;17.15;;;7.35;;
70924;SDS011;58577;52.410;13.242;2022-11-20T12:25:38;12.50;;;6.75;;
70924;SDS011;58577;52.410;13.242;2022-11-20T12:37:46;15.48;;;6.28;;
70924;SDS011;58577;52.410;13.242;2022-11-20T12:40:44;14.98;;;6.50;;
70924;SDS011;58577;52.410;13.242;2022-11-20T12:59:51;17.40;;;7.78;;
70924;SDS011;58577;52.410;13.242;2022-11-20T13:09:14;16.52;;;7.88;;
70924;SDS011;58577;52.410;13.242;2022-11-20T13:12:08;15.68;;;7.05;;
70924;SDS011;58577;52.410;13.242;2022-11-20T13:15:07;14.57;;;6.57;;
70924;SDS011;58577;52.410;13.242;2022-11-20T13:18:00;16.60;;;6.78;;
70924;SDS011;58577;52.410;13.242;2022-11-20T13:20:48;14.75;;;7.05;;
70924;SDS011;58577;52.410;13.242;2022-11-20T13:23:35;15.07;;;7.43;;
70924;SDS011;58577;52.410;13.242;2022-11-20T13:26:21;16.90;;;7.38;;
70924;SDS011;58577;52.410;13.242;2022-11-20T13:29:15;17.27;;;6.55;;
70924;SDS011;58577;52.410;13.242;2022-11-20T13:35:03;15.60;;;7.00;;
70924;SDS011;58577;52.410;13.242;2022-11-20T13:37:58;16.45;;;7.20;;
70924;SDS011;58577;52.410;13.242;2022-11-20T13:40:53;18.52;;;8.00;;
70924;SDS011;58577;52.410;13.242;2022-11-20T13:43:43;18.15;;;7.55;;
70924;SDS011;58577;52.410;13.242;2022-11-20T13:46:40;15.98;;;7.15;;
70924;SDS011;58577;52.410;13.242;2022-11-20T13:49:47;16.75;;;7.47;;
70924;SDS011;58577;52.410;13.242;2022-11-20T13:52:56;15.55;;;7.47;;
70924;SDS011;58577;52.410;13.242;2022-11-20T13:56:05;19.95;;;8.73;;
70924;SDS011;58577;52.410;13.242;2022-11-20T14:02:09;16.02;;;7.57;;
70924;SDS011;58577;52.410;13.242;2022-11-20T14:04:58;16.52;;;7.00;;
70924;SDS011;58577;52.410;13.242;2022-11-20T14:07:46;15.45;;;6.70;;
70924;SDS011;58577;52.410;13.242;2022-11-20T14:10:34;14.27;;;6.45;;
70924;SDS011;58577;52.410;13.242;2022-11-20T14:13:20;15.43;;;6.43;;
70924;SDS011;58577;52.410;13.242;2022-11-20T14:16:06;14.82;;;6.68;;
70924;SDS011;58577;52.410;13.242;2022-11-20T14:18:54;13.98;;;6.63;;
70924;SDS011;58577;52.410;13.242;2022-11-20T14:21:42;14.90;;;7.55;;
70924;SDS011;58577;52.410;13.242;2022-11-20T14:24:28;17.23;;;7.50;;
70924;SDS011;58577;52.410;13.242;2022-11-20T14:27:15;18.10;;;8.07;;
70924;SDS011;58577;52.410;13.242;2022-11-20T14:30:05;16.17;;;6.57;;
70924;SDS011;58577;52.410;13.242;2022-11-20T14:33:00;16.58;;;7.32;;
70924;SDS011;58577;52.410;13.242;2022-11-20T14:35:48;18.50;;;8.02;;
70924;SDS011;58577;52.410;13.242;2022-11-20T14:38:36;18.23;;;6.80;;
70924;SDS011;58577;52.410;13.242;2022-11-20T14:41:22;16.55;;;7.72;;
70924;SDS011;58577;52.410;13.242;2022-11-20T14:44:09;19.40;;;8.65;;
70924;SDS011;58577;52.410;13.242;2022-11-20T14:46:55;17.58;;;8.18;;
70924;SDS011;58577;52.410;13.242;2022-11-20T14:49:42;20.55;;;8.18;;
70924;SDS011;58577;52.410;13.242;2022-11-20T14:52:29;18.42;;;8.25;;
70924;SDS011;58577;52.410;13.242;2022-11-20T14:55:24;21.00;;;8.60;;
70924;SDS011;58577;52.410;13.242;2022-11-20T14:58:22;21.38;;;9.32;;
70924;SDS011;58577;52.410;13.242;2022-11-20T15:01:12;19.48;;;9.27;;
70924;SDS011;58577;52.410;13.242;2022-11-20T15:04:20;18.75;;;8.40;;
70924;SDS011;58577;52.410;13.242;2022-11-20T15:07:05;20.58;;;9.23;;
70924;SDS011;58577;52.410;13.242;2022-11-20T15:10:01;19.52;;;9.18;;
70924;SDS011;58577;52.410;13.242;2022-11-20T15:12:50;17.35;;;8.57;;
70924;SDS011;58577;52.410;13.242;2022-11-20T15:15:48;18.98;;;8.88;;
70924;SDS011;58577;52.410;13.242;2022-11-20T15:18:36;20.27;;;9.68;;
70924;SDS011;58577;52.410;13.242;2022-11-20T15:21:24;19.98;;;8.70;;
70924;SDS011;58577;52.410;13.242;2022-11-20T15:24:10;19.75;;;9.73;;
70924;SDS011;58577;52.410;13.242;2022-11-20T15:26:56;21.48;;;9.10;;
70924;SDS011;58577;52.410;13.242;2022-11-20T15:29:42;20.70;;;8.70;;
70924;SDS011;58577;52.410;13.242;2022-11-20T15:32:28;23.17;;;10.15;;
70924;SDS011;58577;52.410;13.242;2022-11-20T15:35:14;18.60;;;9.13;;
70924;SDS011;58577;52.410;13.242;2022-11-20T15:38:01;19.13;;;9.13;;
70924;SDS011;58577;52.410;13.242;2022-11-20T15:40:47;21.30;;;9.60;;
70924;SDS011;58577;52.410;13.242;2022-11-20T15:43:32;18.45;;;8.57;;
70924;SDS011;58577;52.410;13.242;2022-11-20T15:46:21;19.25;;;8.77;;
70924;SDS011;58577;52.410;13.242;2022-11-20T15:49:15;19.42;;;8.38;;
70924;SDS011;58577;52.410;13.242;2022-11-20T15:52:04;20.90;;;8.68;;
70924;SDS011;58577;52.410;13.242;2022-11-20T15:54:49;19.73;;;8.63;;
70924;SDS011;58577;52.410;13.242;2022-11-20T15:57:35;18.27;;;8.52;;
70924;SDS011;58577;52.410;13.242;2022-11-20T16:00:21;18.25;;;8.70;;
70924;SDS011;58577;52.410;13.242;2022-11-20T16:03:08;19.55;;;8.90;;
70924;SDS011;58577;52.410;13.242;2022-11-20T16:05:56;20.38;;;8.98;;
70924;SDS011;58577;52.410;13.242;2022-11-20T16:08:42;20.60;;;8.90;;
70924;SDS011;58577;52.410;13.242;2022-11-20T16:11:28;19.73;;;9.50;;
70924;SDS011;58577;52.410;13.242;2022-11-20T16:14:13;20.48;;;9.63;;
70924;SDS011;58577;52.410;13.242;2022-11-20T16:17:17;21.15;;;10.23;;
70924;SDS011;58577;52.410;13.242;2022-11-20T16:20:23;20.65;;;9.65;;
70924;SDS011;58577;52.410;13.242;2022-11-20T16:23:09;20.00;;;9.07;;
70924;SDS011;58577;52.410;13.242;2022-11-20T16:25:55;20.45;;;10.48;;
70924;SDS011;58577;52.410;13.242;2022-11-20T16:28:41;17.40;;;8.75;;
70924;SDS011;58577;52.410;13.242;2022-11-20T16:31:26;22.67;;;9.50;;
70924;SDS011;58577;52.410;13.242;2022-11-20T16:34:12;20.38;;;8.93;;
70924;SDS011;58577;52.410;13.242;2022-11-20T16:37:00;21.13;;;9.75;;
70924;SDS011;58577;52.410;13.242;2022-11-20T16:39:46;20.17;;;9.93;;
70924;SDS011;58577;52.410;13.242;2022-11-20T16:42:33;21.30;;;9.50;;
70924;SDS011;58577;52.410;13.242;2022-11-20T16:45:19;26.38;;;10.35;;
70924;SDS011;58577;52.410;13.242;2022-11-20T16:48:05;21.67;;;10.40;;
70924;SDS011;58577;52.410;13.242;2022-11-20T16:50:52;22.90;;;10.70;;
70924;SDS011;58577;52.410;13.242;2022-11-20T16:53:38;25.63;;;11.82;;
70924;SDS011;58577;52.410;13.242;2022-11-20T16:56:25;24.40;;;11.35;;
70924;SDS011;58577;52.410;13.242;2022-11-20T16:59:12;22.27;;;11.00;;
70924;SDS011;58577;52.410;13.242;2022-11-20T17:01:57;23.45;;;11.52;;
70924;SDS011;58577;52.410;13.242;2022-11-20T17:04:44;22.55;;;10.40;;
70924;SDS011;58577;52.410;13.242;2022-11-20T17:07:30;23.85;;;11.32;;
70924;SDS011;58577;52.410;13.242;2022-11-20T17:10:15;24.95;;;11.00;;
70924;SDS011;58577;52.410;13.242;2022-11-20T17:13:01;24.73;;;11.25;;
70924;SDS011;58577;52.410;13.242;2022-11-20T17:15:47;25.92;;;12.25;;
70924;SDS011;58577;52.410;13.242;2022-11-20T17:18:33;25.30;;;12.65;;
70924;SDS011;58577;52.410;13.242;2022-11-20T17:21:19;24.40;;;11.68;;
70924;SDS011;58577;52.410;13.242;2022-11-20T17:24:06;25.30;;;12.38;;
70924;SDS011;58577;52.410;13.242;2022-11-20T17:26:54;24.83;;;11.82;;
70924;SDS011;58577;52.410;13.242;2022-11-20T17:29:39;25.55;;;12.32;;
70924;SDS011;58577;52.410;13.242;2022-11-20T17:32:26;23.50;;;11.35;;
70924;SDS011;58577;52.410;13.242;2022-11-20T17:35:12;25.02;;;11.70;;
70924;SDS011;58577;52.410;13.242;2022-11-20T17:37:58;25.95;;;11.65;;
70924;SDS011;58577;52.410;13.242;2022-11-20T17:40:44;29.17;;;12.55;;